Ana Sayfa
METAR-TAF:

METAR-TAF

Havaalanları :

Calhoun County Airport

Port Lavaca, Teksas, Amerika Birleşik Devletleri

Enlem: 28-39-14N, Boylam: 096-40-52W, yükseklik: 9 m

Güncel hava durumu gözlemi

Rapor saat 03:15 UTC de 39 dakika önce yapıldı.
Rüzgar kuzeydan 9 kt
Sıcaklık 17°C
Nem 68%
Basınç 1024 hPa
Görüş mesafesi: 16.1 km
Açık gökyüzü

METAR: KPKV 070315Z AUTO 01009KT 10SM CLR 17/11 A3024 RMK AO2 T01700108

Saat: 21:54 (03:54 UTC)


TAF: eksik

4.000'den fazla havaalanı için hava durumu gözlemleri ve tahminleri (METAR ve TAF raporları).

Kullanılabilir istasyonlar harita üzerinde sarı ve kırmızı noktalarla gösterilir.

İstasyonun adını görmek için fareyi noktanın üzerinde gezdirin.

Sonrasında hava gözlem ve tahminlerini görmek için tıklayın.

Haritayı değiştirmek için: yaklaştırmak için siyah artı işaretli yeşil düğmeye ve uzaklaştırmak için de eksi işaretli düğmeye hızla tıklayın; bitişik haritalar için yeşil okları kullanın.


METAR-TAF: